Data for 05/02/2008

Time Sea-Level Adjusted Pressure Absolute Pressure Temperature Relative Humidity Dew Point   
(mb) (inHg) (mb) (inHg) (C) (F) (%) (C) (F)
00:05 1020 30.12 849 25.07 3.4 38.1 51 -5.9 21.3
00:10 1020 30.12 849 25.07 3.4 38.2 50 -6 21.1
00:15 1020 30.12 849 25.07 3.4 38.1 50 -6.1 21.1
00:20 1020 30.12 849 25.07 3.4 38.2 50 -5.9 21.3
00:25 1020 30.12 849 25.07 3.2 37.8 51 -6 21.1
00:30 1020 30.12 849 25.07 3.2 37.7 51 -5.9 21.4
00:35 1020 30.12 849 25.07 2.9 37.2 54 -5.4 22.2
00:40 1020 30.12 850 25.1 2.7 36.8 55 -5.4 22.2
00:45 1020 30.12 850 25.1 2.7 36.8 55 -5.4 22.3
00:50 1021 30.15 850 25.1 2.6 36.7 55 -5.6 22
00:55 1021 30.15 850 25.1 2.6 36.6 55 -5.5 22.1
01:00 1021 30.15 850 25.1 2.7 36.8 54 -5.6 21.9
01:05 1021 30.15 850 25.1 2.6 36.6 54 -5.7 21.7
01:10 1021 30.15 850 25.1 2.4 36.4 54 -6 21.2
01:15 1021 30.15 850 25.1 2.7 36.9 54 -5.8 21.6
01:20 1021 30.15 850 25.1 2.7 36.9 54 -5.6 21.9
01:25 1021 30.15 850 25.1 2.5 36.5 56 -5.3 22.4
01:30 1021 30.15 850 25.1 2.4 36.3 57 -5.3 22.5
01:35 1021 30.15 850 25.1 2.5 36.5 55 -5.6 22
01:40 1021 30.15 850 25.1 2.7 36.8 55 -5.4 22.2
01:45 1021 30.15 850 25.1 2.9 37.3 54 -5.5 22.1
01:50 1021 30.15 850 25.1 3.1 37.6 53 -5.6 21.8
01:55 1021 30.15 850 25.1 3.3 37.9 51 -5.8 21.6
02:00 1021 30.15 850 25.1 3.4 38.1 52 -5.5 22.1
02:05 1021 30.15 850 25.1 3.1 37.6 54 -5.3 22.4
02:10 1021 30.15 850 25.1 3 37.4 55 -5.3 22.5
02:15 1021 30.15 850 25.1 2.9 37.2 56 -5 23
02:20 1021 30.15 850 25.1 2.6 36.8 59 -4.6 23.8
02:25 1021 30.15 850 25.1 2.6 36.6 57 -5.1 22.9
02:30 1021 30.15 850 25.1 2.6 36.6 59 -4.6 23.7
02:35 1021 30.15 850 25.1 2.4 36.2 58 -5.1 22.9
02:40 1021 30.15 850 25.1 2.2 36 59 -4.9 23.1
02:45 1021 30.15 850 25.1 2.4 36.2 61 -4.5 23.9
02:50 1021 30.15 850 25.1 2.5 36.5 62 -4 24.7
02:55 1021 30.15 850 25.1 2.5 36.5 64 -3.6 25.6
03:00 1021 30.15 850 25.1 2.5 36.6 65 -3.4 25.9
03:05 1021 30.15 850 25.1 2.6 36.7 60 -4.5 24
03:10 1021 30.15 850 25.1 2.7 36.8 60 -4.2 24.4
03:15 1021 30.15 850 25.1 2.6 36.6 62 -4 24.7
03:20 1021 30.15 850 25.1 2.4 36.4 64 -3.7 25.3
03:25 1021 30.15 850 25.1 2.2 36 66 -3.4 25.9
03:30 1021 30.15 850 25.1 2 35.6 68 -3.3 26.1
03:35 1021 30.15 850 25.1 1.8 35.2 72 -2.8 26.9
03:40 1021 30.15 850 25.1 1.7 35.1 73 -2.6 27.3
03:45 1021 30.15 850 25.1 1.5 34.8 74 -2.7 27.2
03:50 1021 30.15 850 25.1 1.5 34.7 74 -2.6 27.4
03:55 1021 30.15 850 25.1 1.5 34.7 75 -2.6 27.4
04:00 1021 30.15 850 25.1 1.5 34.6 75 -2.5 27.5
04:05 1021 30.15 850 25.1 1.5 34.6 75 -2.4 27.6
04:10 1021 30.15 850 25.1 1.5 34.7 75 -2.5 27.4
04:15 1021 30.15 850 25.1 1.6 34.9 73 -2.7 27.1
04:20 1021 30.15 851 25.13 1.8 35.3 72 -2.7 27.2
04:25 1021 30.15 851 25.13 1.8 35.2 73 -2.6 27.3
04:30 1021 30.15 851 25.13 1.8 35.2 73 -2.6 27.3
04:35 1021 30.15 851 25.13 1.6 34.9 74 -2.6 27.3
04:40 1021 30.15 851 25.13 1.6 34.9 73 -2.7 27.1
04:45 1021 30.15 851 25.13 1.9 35.5 71 -2.9 26.8
04:50 1021 30.15 851 25.13 2.2 36 69 -2.9 26.7
04:55 1021 30.15 851 25.13 2.5 36.5 66 -3.2 26.2
05:00 1021 30.15 851 25.13 2.6 36.6 65 -3.4 25.9
05:05 1021 30.15 851 25.13 2.6 36.7 64 -3.5 25.7
05:10 1021 30.15 851 25.13 2.6 36.7 63 -3.7 25.4
05:15 1021 30.15 851 25.13 2.5 36.5 62 -4 24.9
05:20 1022 30.18 851 25.13 2.2 36 64 -3.9 25
05:25 1022 30.18 851 25.13 2.2 35.9 62 -4.3 24.3
05:30 1022 30.18 851 25.13 2.5 36.4 61 -4.2 24.5
05:35 1022 30.18 851 25.13 2.5 36.4 67 -3 26.5
05:40 1022 30.18 851 25.13 2 35.6 71 -2.7 27.1
05:45 1022 30.18 851 25.13 1.7 35.1 73 -2.7 27.2
05:50 1022 30.18 851 25.13 1.7 35 73 -2.6 27.4
05:55 1022 30.18 851 25.13 1.6 34.9 74 -2.6 27.4
06:00 1022 30.18 851 25.13 1.6 34.9 74 -2.6 27.4
06:05 1022 30.18 851 25.13 1.5 34.7 74 -2.5 27.4
06:10 1022 30.18 851 25.13 1.5 34.7 75 -2.4 27.7
06:15 1022 30.18 851 25.13 1.5 34.7 75 -2.4 27.8
06:20 1022 30.18 851 25.13 1.5 34.7 75 -2.4 27.6
06:25 1022 30.18 851 25.13 1.5 34.7 74 -2.6 27.4
06:30 1022 30.18 851 25.13 1.5 34.7 74 -2.6 27.2
06:35 1022 30.18 851 25.13 1.5 34.7 73 -2.8 26.9
06:40 1022 30.18 851 25.13 1.7 35 71 -3.1 26.5
06:45 1022 30.18 851 25.13 2 35.5 67 -3.5 25.7
06:50 1022 30.18 851 25.13 2.1 35.8 65 -3.8 25.1
06:55 1022 30.18 851 25.13 2.4 36.4 63 -4 24.8
07:00 1022 30.18 851 25.13 2.6 36.6 64 -3.6 25.5
07:05 1022 30.18 851 25.13 2.3 36.1 63 -3.9 24.9
07:10 1022 30.18 852 25.16 2.3 36.1 62 -4.2 24.5
07:15 1022 30.18 852 25.16 2.3 36.2 60 -4.6 23.6
07:20 1022 30.18 852 25.16 2.4 36.3 61 -4.3 24.3
07:25 1022 30.18 852 25.16 2.5 36.4 62 -4.2 24.5
07:30 1022 30.18 852 25.16 2.5 36.5 63 -3.9 24.9
07:35 1022 30.18 852 25.16 2.5 36.5 62 -4.1 24.7
07:40 1022 30.18 852 25.16 2.5 36.5 61 -4.3 24.3
07:45 1022 30.18 852 25.16 2.5 36.5 60 -4.5 23.9
07:50 1022 30.18 852 25.16 2.7 36.9 59 -4.4 24.1
07:55 1022 30.18 852 25.16 2.9 37.2 58 -4.5 24
08:00 1022 30.18 852 25.16 3 37.4 59 -4.3 24.3
08:05 1022 30.18 852 25.16 3 37.4 61 -3.7 25.4
08:10 1022 30.18 852 25.16 2.7 36.9 62 -3.8 25.2
08:15 1022 30.18 852 25.16 2.7 36.9 62 -3.7 25.3
08:20 1022 30.18 852 25.16 2.9 37.3 62 -3.5 25.6
08:25 1022 30.18 852 25.16 3 37.5 62 -3.5 25.7
08:30 1022 30.18 852 25.16 3.1 37.6 61 -3.8 25.1
08:35 1023 30.21 852 25.16 3.1 37.6 62 -3.6 25.6
08:40 1023 30.21 852 25.16 3.2 37.8 62 -3.5 25.8
08:45 1023 30.21 852 25.16 3.3 37.9 61 -3.5 25.8
08:50 1023 30.21 852 25.16 3.2 37.7 61 -3.6 25.5
08:55 1023 30.21 852 25.16 3.3 38 60 -3.7 25.4
09:00 1023 30.21 852 25.16 3.4 38.1 56 -4.6 23.8
09:05 1023 30.21 852 25.16 3.5 38.2 53 -5.3 22.4
09:10 1023 30.21 852 25.16 3.6 38.5 52 -5.5 22.2
09:15 1023 30.21 852 25.16 4 39.2 50 -5.4 22.3
09:20 1023 30.21 852 25.16 4.2 39.6 49 -5.4 22.2
09:25 1023 30.21 852 25.16 4.2 39.5 51 -5.1 22.7
09:30 1023 30.21 852 25.16 4.5 40.1 50 -5.1 22.7
09:35 1023 30.21 852 25.16 4.6 40.3 47 -5.6 21.9
09:40 1023 30.21 852 25.16 4.6 40.3 47 -5.7 21.8
09:45 1023 30.21 852 25.16 4.8 40.6 46 -5.9 21.5
09:50 1023 30.21 852 25.16 5.1 41.2 45 -5.9 21.4
09:55 1023 30.21 852 25.16 5.2 41.3 45 -5.7 21.7
10:00 1023 30.21 852 25.16 5.1 41.3 45 -5.8 21.5
10:05 1023 30.21 852 25.16 5.2 41.3 45 -5.8 21.5
10:10 1023 30.21 852 25.16 5.2 41.3 45 -5.9 21.4
10:15 1023 30.21 852 25.16 5.3 41.6 45 -5.8 21.6
10:20 1023 30.21 852 25.16 5.4 41.8 44 -5.9 21.3
10:25 1023 30.21 852 25.16 5.6 42.1 44 -5.8 21.6
10:30 1023 30.21 852 25.16 6.3 43.3 42 -5.8 21.6
10:35 1023 30.21 852 25.16 6.8 44.3 40 -5.7 21.7
10:40 1023 30.21 852 25.16 7.5 45.6 38 -5.9 21.4
10:45 1023 30.21 852 25.16 7.5 45.5 38 -6 21.2
10:50 1023 30.21 852 25.16 6.9 44.5 40 -5.8 21.6
10:55 1023 30.21 852 25.16 6.6 43.8 40 -6 21.1
11:00 1023 30.21 852 25.16 6.6 43.8 41 -5.7 21.7
11:05 1023 30.21 852 25.16 6.4 43.5 41 -5.9 21.4
11:10 1023 30.21 852 25.16 6.1 43 42 -5.7 21.7
11:15 1023 30.21 852 25.16 6 42.8 43 -5.7 21.7
11:20 1023 30.21 852 25.16 6.4 43.4 42 -5.7 21.7
11:25 1023 30.21 852 25.16 6.1 43.1 44 -5.3 22.5
11:30 1023 30.21 852 25.16 6 42.7 44 -5.5 22.1
11:35 1023 30.21 852 25.16 6.3 43.3 43 -5.3 22.4
11:40 1023 30.21 852 25.16 6.4 43.5 43 -5.3 22.5
11:45 1023 30.21 852 25.16 6.3 43.3 44 -5.2 22.6
11:50 1023 30.21 852 25.16 6.3 43.3 44 -5.2 22.6
11:55 1023 30.21 852 25.16 5.7 42.3 46 -5 23
12:00 1023 30.21 852 25.16 5.7 42.2 46 -5.1 22.8
12:05 1023 30.21 852 25.16 6.3 43.3 44 -5 22.9
12:10 1023 30.21 852 25.16 6.3 43.3 44 -5.2 22.7
12:15 1023 30.21 852 25.16 6 42.8 45 -5.1 22.9
12:20 1023 30.21 852 25.16 5.9 42.6 45 -5.2 22.6
12:25 1023 30.21 852 25.16 6.1 43 45 -4.9 23.1
12:30 1023 30.21 852 25.16 6.4 43.6 44 -4.9 23.1
12:35 1023 30.21 852 25.16 6.7 44.1 43 -4.9 23.1
12:40 1023 30.21 852 25.16 6.5 43.8 43 -5.2 22.6
12:45 1023 30.21 852 25.16 6.4 43.4 44 -5.1 22.9
12:50 1023 30.21 852 25.16 6.7 44.1 44 -4.8 23.3
12:55 1023 30.21 852 25.16 6.5 43.6 44 -5 23
13:00 1023 30.21 852 25.16 6.7 44 43 -4.9 23.1
13:05 1023 30.21 852 25.16 7 44.6 43 -4.8 23.3
13:10 1023 30.21 852 25.16 6.9 44.4 44 -4.7 23.6
13:15 1023 30.21 852 25.16 6.5 43.7 45 -4.6 23.7
13:20 1023 30.21 852 25.16 6.3 43.4 44 -4.9 23.1
13:25 1023 30.21 852 25.16 6.6 43.9 44 -4.7 23.5
13:30 1023 30.21 852 25.16 6.9 44.4 44 -4.5 23.9
13:35 1023 30.21 852 25.16 6.9 44.4 44 -4.5 23.9
13:40 1023 30.21 852 25.16 6.8 44.3 45 -4.4 24
13:45 1023 30.21 852 25.16 7.3 45.2 43 -4.5 24
13:50 1023 30.21 852 25.16 7.4 45.4 44 -4.1 24.7
13:55 1023 30.21 852 25.16 7.8 46 41 -4.5 23.9
14:00 1023 30.21 852 25.16 8.1 46.6 41 -4.4 24.1
14:05 1023 30.21 852 25.16 8 46.4 43 -3.8 25.1
14:10 1023 30.21 852 25.16 7.9 46.1 42 -4.2 24.4
14:15 1023 30.21 852 25.16 9.2 48.5 39 -4.2 24.5
14:20 1023 30.21 852 25.16 10 50 37 -4.1 24.7
14:25 1023 30.21 852 25.16 10.3 50.5 37 -3.7 25.3
14:30 1022 30.18 852 25.16 9.7 49.5 39 -3.7 25.3
14:35 1022 30.18 852 25.16 9.1 48.4 41 -3.5 25.7
14:40 1022 30.18 852 25.16 10.3 50.5 38 -3.6 25.6
14:45 1022 30.18 852 25.16 9.8 49.7 40 -3.2 26.3
14:50 1022 30.18 852 25.16 9.2 48.6 41 -3.3 26
14:55 1022 30.18 852 25.16 9.3 48.7 40 -3.7 25.4
15:00 1022 30.18 851 25.13 9.6 49.4 40 -3.4 25.9
15:05 1022 30.18 851 25.13 9.5 49 41 -3.1 26.5
15:10 1022 30.18 851 25.13 9.9 49.8 40 -3.1 26.4
15:15 1022 30.18 851 25.13 9.5 49.1 41 -3 26.6
15:20 1022 30.18 851 25.13 9.7 49.4 40 -3.4 25.9
15:25 1022 30.18 851 25.13 10.1 50.1 39 -3.3 26
15:30 1022 30.18 851 25.13 9.2 48.6 43 -2.7 27.1
15:35 1022 30.18 851 25.13 8.8 47.9 42 -3.4 25.9
15:40 1022 30.18 851 25.13 9.1 48.5 41 -3.4 25.8
15:45 1022 30.18 851 25.13 9.6 49.2 40 -3.4 25.9
15:50 1022 30.18 851 25.13 9.8 49.6 40 -3 26.5
15:55 1022 30.18 851 25.13 9.4 48.9 41 -3.1 26.5
16:00 1022 30.18 851 25.13 9.3 48.7 41 -3.1 26.4
16:05 1022 30.18 851 25.13 9.1 48.4 42 -3.2 26.3
16:10 1022 30.18 851 25.13 9 48.3 42 -3.3 26.1
16:15 1022 30.18 851 25.13 9.4 48.8 41 -3.2 26.3
16:20 1022 30.18 851 25.13 9.5 49.1 41 -2.9 26.8
16:25 1022 30.18 851 25.13 9.8 49.6 39 -3.4 25.9
16:30 1022 30.18 851 25.13 10.1 50.2 38 -3.5 25.7
16:35 1022 30.18 851 25.13 9.6 49.4 40 -3.2 26.2
16:40 1022 30.18 851 25.13 9.1 48.4 42 -3.2 26.2
16:45 1022 30.18 851 25.13 9.3 48.7 42 -3.1 26.4
16:50 1022 30.18 851 25.13 8.9 48 44 -2.7 27.1
16:55 1022 30.18 851 25.13 8.6 47.5 43 -3.2 26.2
17:00 1022 30.18 851 25.13 8.8 47.8 42 -3.3 26.1
17:05 1022 30.18 851 25.13 9.1 48.4 42 -3.2 26.3
17:10 1022 30.18 851 25.13 9 48.3 41 -3.4 26
17:15 1022 30.18 851 25.13 9.2 48.5 41 -3.3 26
17:20 1022 30.18 851 25.13 9.1 48.3 42 -3.2 26.2
17:25 1022 30.18 851 25.13 9.6 49.3 40 -3.2 26.2
17:30 1022 30.18 851 25.13 9.9 49.8 39 -3.6 25.6
17:35 1021 30.15 851 25.13 9.7 49.5 40 -3.2 26.2
17:40 1021 30.15 851 25.13 9.5 49.2 41 -3.2 26.3
17:45 1021 30.15 851 25.13 9.5 49.1 40 -3.5 25.7
17:50 1021 30.15 851 25.13 9.6 49.4 38 -3.9 25
17:55 1021 30.15 851 25.13 9.5 49.1 38 -3.9 24.9
18:00 1021 30.15 851 25.13 9.8 49.7 38 -3.9 24.9
18:05 1021 30.15 851 25.13 9.7 49.4 37 -4.2 24.4
18:10 1021 30.15 851 25.13 9.2 48.6 38 -4.3 24.3
18:15 1021 30.15 851 25.13 9.2 48.6 38 -4.2 24.4
18:20 1021 30.15 850 25.1 9.6 49.2 37 -4.4 24.2
18:25 1021 30.15 850 25.1 9.5 49.2 37 -4.2 24.4
18:30 1021 30.15 850 25.1 9.4 48.9 38 -4.2 24.5
18:35 1021 30.15 850 25.1 9.6 49.2 37 -4.3 24.3
18:40 1021 30.15 850 25.1 9.6 49.2 37 -4.5 23.9
18:45 1021 30.15 850 25.1 9.7 49.4 38 -4.1 24.7
18:50 1021 30.15 850 25.1 9.3 48.8 38 -4.4 24.1
18:55 1021 30.15 850 25.1 9 48.1 38 -4.4 24.1
19:00 1021 30.15 850 25.1 9 48.1 38 -4.6 23.8
19:05 1021 30.15 850 25.1 8.7 47.7 39 -4.5 23.9
19:10 1021 30.15 850 25.1 8.5 47.4 39 -4.5 23.9
19:15 1021 30.15 850 25.1 8.6 47.5 39 -4.6 23.8
19:20 1021 30.15 850 25.1 8.7 47.7 38 -4.7 23.5
19:25 1021 30.15 850 25.1 8.8 47.8 39 -4.4 24
19:30 1021 30.15 850 25.1 8.7 47.6 39 -4.5 23.9
19:35 1021 30.15 850 25.1 8.7 47.7 38 -4.7 23.5
19:40 1021 30.15 850 25.1 8.6 47.4 38 -4.8 23.3
19:45 1021 30.15 850 25.1 8.5 47.2 38 -4.9 23.1
19:50 1021 30.15 850 25.1 8.5 47.2 39 -4.7 23.6
19:55 1021 30.15 850 25.1 8.4 47.2 40 -4.4 24
20:00 1021 30.15 850 25.1 8.3 47 41 -4.2 24.4
20:05 1021 30.15 850 25.1 8.2 46.8 41 -4.3 24.2
20:10 1021 30.15 850 25.1 8.1 46.5 41 -4.3 24.3
20:15 1021 30.15 850 25.1 8 46.4 42 -4.2 24.4
20:20 1021 30.15 850 25.1 7.9 46.1 42 -4.2 24.4
20:25 1021 30.15 850 25.1 7.7 45.8 43 -4.1 24.5
20:30 1021 30.15 850 25.1 7.5 45.6 44 -4 24.7
20:35 1021 30.15 850 25.1 7.4 45.2 45 -3.9 25
20:40 1021 30.15 850 25.1 7.2 44.9 45 -3.9 25
20:45 1021 30.15 850 25.1 6.9 44.5 46 -3.9 25
20:50 1021 30.15 850 25.1 6.7 44.1 47 -3.8 25.1
20:55 1021 30.15 850 25.1 6.6 43.8 48 -3.6 25.5
21:00 1021 30.15 850 25.1 6.3 43.3 50 -3.2 26.2
21:05 1021 30.15 850 25.1 6 42.7 52 -3.1 26.5
21:10 1021 30.15 850 25.1 5.7 42.3 53 -3 26.6
21:15 1021 30.15 850 25.1 5.5 41.9 55 -2.8 27
21:20 1021 30.15 850 25.1 5.3 41.5 56 -2.7 27.1
21:25 1021 30.15 850 25.1 4.9 40.7 61 -2.1 28.2
21:30 1021 30.15 850 25.1 4.3 39.7 63 -2.2 28.1
21:35 1021 30.15 850 25.1 4 39.3 64 -2.2 28
21:40 1021 30.15 850 25.1 4 39.2 62 -2.6 27.3
21:45 1021 30.15 850 25.1 4.2 39.6 61 -2.6 27.3
21:50 1021 30.15 850 25.1 4.1 39.5 61 -2.6 27.2
21:55 1021 30.15 850 25.1 4.1 39.3 62 -2.4 27.6
22:00 1021 30.15 850 25.1 3.7 38.7 65 -2.3 27.9
22:05 1021 30.15 850 25.1 3.3 37.9 66 -2.5 27.5
22:10 1021 30.15 850 25.1 3.3 38 65 -2.6 27.4
22:15 1021 30.15 850 25.1 3.4 38.1 64 -2.7 27.1
22:20 1021 30.15 850 25.1 3.5 38.3 64 -2.7 27.1
22:25 1021 30.15 850 25.1 3.4 38.1 65 -2.5 27.4
22:30 1021 30.15 850 25.1 3.2 37.7 66 -2.6 27.3
22:35 1021 30.15 850 25.1 3 37.3 66 -2.7 27.1
22:40 1021 30.15 850 25.1 2.9 37.2 67 -2.7 27.1
22:45 1021 30.15 850 25.1 2.8 37.1 68 -2.5 27.4
22:50 1021 30.15 850 25.1 2.6 36.7 69 -2.4 27.6
22:55 1021 30.15 850 25.1 2.6 36.8 68 -2.6 27.3
23:00 1021 30.15 850 25.1 2.8 37.1 68 -2.5 27.4
23:05 1020 30.12 850 25.1 2.7 36.9 68 -2.5 27.4
23:10 1020 30.12 850 25.1 2.6 36.8 69 -2.5 27.4
23:15 1020 30.12 850 25.1 2.8 37 68 -2.6 27.4
23:20 1020 30.12 850 25.1 2.8 37.1 68 -2.5 27.5
23:25 1020 30.12 849 25.07 2.6 36.7 69 -2.5 27.5
23:30 1020 30.12 849 25.07 2.5 36.6 69 -2.6 27.4
23:35 1020 30.12 849 25.07 2.5 36.5 69 -2.5 27.5
23:40 1020 30.12 849 25.07 2.3 36.2 70 -2.5 27.5
23:45 1020 30.12 849 25.07 2.3 36.1 71 -2.5 27.5
23:50 1020 30.12 849 25.07 2.4 36.2 70 -2.5 27.5
23:55 1020 30.12 849 25.07 2.6 36.6 69 -2.6 27.4
24:00 1020 30.12 849 25.07 2.7 36.8 68 -2.6 27.4